createdAt,value
2023-01-09T00:00:51.738Z,-3.20
2023-01-09T00:03:18.711Z,-3.20
2023-01-09T00:05:52.321Z,-3.20
2023-01-09T00:08:25.875Z,-3.20
2023-01-09T00:10:53.014Z,-3.10
2023-01-09T00:13:20.115Z,-3.10
2023-01-09T00:15:48.962Z,-3.10
2023-01-09T00:18:15.853Z,-3.10
2023-01-09T00:20:42.942Z,-3.10
2023-01-09T00:23:09.914Z,-3.10
2023-01-09T00:25:36.975Z,-3.10
2023-01-09T00:28:04.157Z,-3.10
2023-01-09T00:30:31.147Z,-3.10
2023-01-09T00:32:58.133Z,-3.10
2023-01-09T00:35:26.415Z,-3.00
2023-01-09T00:37:53.537Z,-3.00
2023-01-09T00:40:20.910Z,-3.00
2023-01-09T00:42:53.130Z,-3.00
2023-01-09T00:45:28.718Z,-3.00
2023-01-09T00:48:02.400Z,-3.00
2023-01-09T00:50:30.879Z,-3.00
2023-01-09T00:53:00.410Z,-3.00
2023-01-09T00:55:28.123Z,-3.00
2023-01-09T00:57:56.151Z,-2.90
2023-01-09T01:00:23.220Z,-3.00
2023-01-09T01:02:50.171Z,-3.00
2023-01-09T01:05:36.071Z,-3.00
2023-01-09T01:08:03.064Z,-3.00
2023-01-09T01:10:29.961Z,-2.90
2023-01-09T01:12:56.938Z,-2.90
2023-01-09T01:15:24.139Z,-2.90
2023-01-09T01:17:51.199Z,-3.00
2023-01-09T01:20:18.609Z,-2.90
2023-01-09T01:22:46.565Z,-2.90
2023-01-09T01:25:15.173Z,-2.90
2023-01-09T01:27:42.142Z,-2.90
2023-01-09T01:30:11.317Z,-2.90
2023-01-09T01:32:38.823Z,-2.90
2023-01-09T01:35:06.860Z,-2.90
2023-01-09T01:37:47.533Z,-2.90
2023-01-09T01:40:21.181Z,-2.90
2023-01-09T01:42:53.672Z,-2.90
2023-01-09T01:45:25.067Z,-2.90
2023-01-09T01:47:58.245Z,-2.90
2023-01-09T01:50:40.885Z,-2.90
2023-01-09T01:53:11.173Z,-2.90
2023-01-09T01:55:40.131Z,-2.90
2023-01-09T01:58:08.882Z,-2.90
2023-01-09T02:00:38.463Z,-2.90
2023-01-09T02:03:07.070Z,-2.90
2023-01-09T02:05:35.275Z,-2.80
2023-01-09T02:08:02.538Z,-2.80
2023-01-09T02:10:30.923Z,-2.80
2023-01-09T02:12:57.996Z,-2.90
2023-01-09T02:15:26.075Z,-2.80
2023-01-09T02:18:11.519Z,-2.90
2023-01-09T02:20:38.578Z,-2.80
2023-01-09T02:23:17.604Z,-2.80
2023-01-09T02:26:03.620Z,-2.90
2023-01-09T02:28:42.504Z,-2.80
2023-01-09T02:31:09.496Z,-2.90
2023-01-09T02:33:48.369Z,-2.80
2023-01-09T02:36:33.483Z,-2.80
2023-01-09T02:39:12.478Z,-2.80
2023-01-09T02:41:45.574Z,-2.80
2023-01-09T02:44:15.370Z,-2.80
2023-01-09T02:46:43.462Z,-2.80
2023-01-09T02:49:10.809Z,-2.80
2023-01-09T02:51:45.840Z,-2.80
2023-01-09T02:54:18.826Z,-2.80
2023-01-09T02:56:55.074Z,-2.80
2023-01-09T02:59:27.404Z,-2.80
2023-01-09T03:01:57.689Z,-2.80
2023-01-09T03:04:49.476Z,-2.80
2023-01-09T03:07:42.423Z,-2.80
2023-01-09T03:10:22.463Z,-2.80
2023-01-09T03:13:10.374Z,-2.80
2023-01-09T03:15:46.475Z,-2.80
2023-01-09T03:18:14.302Z,-2.80
2023-01-09T03:20:41.448Z,-2.80
2023-01-09T03:23:09.121Z,-2.80
2023-01-09T03:25:36.156Z,-2.80
2023-01-09T03:28:07.810Z,-2.80
2023-01-09T03:30:35.762Z,-2.80
2023-01-09T03:33:02.774Z,-2.80
2023-01-09T03:35:29.793Z,-2.80
2023-01-09T03:37:59.058Z,-2.80
2023-01-09T03:40:26.308Z,-2.80
2023-01-09T03:42:53.279Z,-2.80
2023-01-09T03:45:20.346Z,-2.80
2023-01-09T03:47:47.315Z,-2.80
2023-01-09T03:50:14.294Z,-2.80
2023-01-09T03:52:43.414Z,-2.80
2023-01-09T03:55:10.454Z,-2.80
2023-01-09T03:57:37.453Z,-2.80
2023-01-09T04:00:04.698Z,-2.80
2023-01-09T04:02:39.257Z,-2.80
2023-01-09T04:05:06.665Z,-2.80
2023-01-09T04:07:33.866Z,-2.80
2023-01-09T04:10:00.970Z,-2.80
2023-01-09T04:12:27.927Z,-2.80
2023-01-09T04:14:54.923Z,-2.80
2023-01-09T04:17:21.949Z,-2.80
2023-01-09T04:19:49.426Z,-2.80
2023-01-09T04:22:16.510Z,-2.80
2023-01-09T04:24:49.804Z,-2.80
2023-01-09T04:27:23.506Z,-2.80
2023-01-09T04:29:50.733Z,-2.80
2023-01-09T04:32:17.818Z,-2.80
2023-01-09T04:34:44.734Z,-2.80
2023-01-09T04:37:11.886Z,-2.80
2023-01-09T04:39:39.485Z,-2.80
2023-01-09T04:42:06.477Z,-2.70
2023-01-09T04:44:33.492Z,-2.80
2023-01-09T04:47:00.552Z,-2.70
2023-01-09T04:49:28.025Z,-2.70
2023-01-09T04:51:55.483Z,-2.80
2023-01-09T04:54:22.477Z,-2.70
2023-01-09T04:56:49.535Z,-2.70
2023-01-09T04:59:16.764Z,-2.70
2023-01-09T05:01:43.876Z,-2.70
2023-01-09T05:04:11.522Z,-2.70
2023-01-09T05:06:38.626Z,-2.70
2023-01-09T05:09:05.557Z,-2.70
2023-01-09T05:11:32.676Z,-2.70
2023-01-09T05:13:59.636Z,-2.70
2023-01-09T05:16:26.656Z,-2.70
2023-01-09T05:18:56.695Z,-2.70
2023-01-09T05:21:24.151Z,-2.70
2023-01-09T05:23:51.157Z,-2.60
2023-01-09T05:26:18.773Z,-2.60
2023-01-09T05:28:45.823Z,-2.60
2023-01-09T05:31:15.595Z,-2.70
2023-01-09T05:33:42.701Z,-2.70
2023-01-09T05:36:09.672Z,-2.70
2023-01-09T05:38:36.799Z,-2.70
2023-01-09T05:41:04.005Z,-2.70
2023-01-09T05:43:31.123Z,-2.70
2023-01-09T05:46:00.095Z,-2.70
2023-01-09T05:48:28.068Z,-2.70
2023-01-09T05:50:55.297Z,-2.70
2023-01-09T05:53:22.271Z,-2.70
2023-01-09T05:55:49.211Z,-2.70
2023-01-09T05:58:22.785Z,-2.70
2023-01-09T06:00:56.318Z,-2.70
2023-01-09T06:03:23.209Z,-2.70
2023-01-09T06:05:51.883Z,-2.70
2023-01-09T06:08:18.794Z,-2.70
2023-01-09T06:10:46.358Z,-2.70
2023-01-09T06:13:13.477Z,-2.70
2023-01-09T06:15:40.528Z,-2.60
2023-01-09T06:18:07.621Z,-2.60
2023-01-09T06:20:34.654Z,-2.60
2023-01-09T06:23:02.441Z,-2.60
2023-01-09T06:25:29.503Z,-2.60
2023-01-09T06:27:56.419Z,-2.60
2023-01-09T06:30:23.427Z,-2.60
2023-01-09T06:32:50.721Z,-2.60
2023-01-09T06:35:22.329Z,-2.60
2023-01-09T06:37:49.917Z,-2.60
2023-01-09T06:40:17.287Z,-2.60
2023-01-09T06:42:45.259Z,-2.60
2023-01-09T06:45:12.579Z,-2.60
2023-01-09T06:47:39.928Z,-2.60
2023-01-09T06:50:08.259Z,-2.60
2023-01-09T06:52:36.292Z,-2.60
2023-01-09T06:55:03.753Z,-2.60
2023-01-09T06:57:30.791Z,-2.50
2023-01-09T07:00:04.728Z,-2.50
2023-01-09T07:02:51.598Z,-2.50
2023-01-09T07:05:25.493Z,-2.50
2023-01-09T07:07:52.430Z,-2.50
2023-01-09T07:10:19.435Z,-2.50
2023-01-09T07:12:46.498Z,-2.50
2023-01-09T07:15:13.536Z,-2.40
2023-01-09T07:17:40.641Z,-2.40
2023-01-09T07:20:08.168Z,-2.50
2023-01-09T07:22:35.264Z,-2.40
2023-01-09T07:25:02.550Z,-2.40
2023-01-09T07:27:29.482Z,-2.40
2023-01-09T07:29:56.557Z,-2.40
2023-01-09T07:32:24.189Z,-2.40
2023-01-09T07:34:51.798Z,-2.30
2023-01-09T07:37:19.217Z,-2.40
2023-01-09T07:39:59.614Z,-2.40
2023-01-09T07:42:39.708Z,-2.30
2023-01-09T07:45:26.709Z,-2.30
2023-01-09T07:48:00.416Z,-2.30
2023-01-09T07:50:27.378Z,-2.40
2023-01-09T07:52:54.427Z,-2.40
2023-01-09T07:55:21.418Z,-2.30
2023-01-09T07:57:49.622Z,-2.30
2023-01-09T08:00:16.983Z,-2.30
2023-01-09T08:02:44.198Z,-2.30
2023-01-09T08:05:15.041Z,-2.30
2023-01-09T08:07:42.139Z,-2.30
2023-01-09T08:10:10.645Z,-2.30
2023-01-09T08:12:42.109Z,-2.30
2023-01-09T08:15:09.264Z,-2.30
2023-01-09T08:17:36.976Z,-2.30
2023-01-09T08:20:04.028Z,-2.30
2023-01-09T08:22:31.074Z,-2.20
2023-01-09T08:24:58.649Z,-2.20
2023-01-09T08:27:25.622Z,-2.20
2023-01-09T08:29:52.577Z,-2.20
2023-01-09T08:32:19.613Z,-2.20
2023-01-09T08:34:46.599Z,-2.20
2023-01-09T08:37:13.801Z,-2.20
2023-01-09T08:39:40.842Z,-2.20
2023-01-09T08:42:26.349Z,-2.10
2023-01-09T08:45:11.867Z,-2.10
2023-01-09T08:47:39.603Z,-2.10
2023-01-09T08:50:06.885Z,-2.10
2023-01-09T08:52:34.663Z,-2.10
2023-01-09T08:55:02.420Z,-2.10
2023-01-09T08:57:29.472Z,-2.10
2023-01-09T08:59:56.568Z,-2.10
2023-01-09T09:02:23.753Z,-2.10
2023-01-09T09:04:53.526Z,-2.10
2023-01-09T09:07:27.033Z,-2.10
2023-01-09T09:09:54.550Z,-2.00
2023-01-09T09:12:22.287Z,-2.00
2023-01-09T09:15:07.669Z,-2.00
2023-01-09T09:17:34.810Z,-2.00
2023-01-09T09:20:02.548Z,-2.00
2023-01-09T09:22:29.612Z,-1.90
2023-01-09T09:24:56.611Z,-1.90
2023-01-09T09:27:23.547Z,-1.90
2023-01-09T09:29:50.565Z,-1.90
2023-01-09T09:32:17.468Z,-1.90
2023-01-09T09:34:44.438Z,-2.00
2023-01-09T09:37:12.104Z,-1.90
2023-01-09T09:39:39.291Z,-1.90
2023-01-09T09:42:24.805Z,-1.90
2023-01-09T09:45:02.302Z,-1.90
2023-01-09T09:47:32.468Z,-1.80
2023-01-09T09:50:18.257Z,-1.80
2023-01-09T09:52:57.614Z,-1.80
2023-01-09T09:55:27.383Z,-1.80
2023-01-09T09:57:55.230Z,-1.80
2023-01-09T10:00:23.361Z,-1.80
2023-01-09T10:03:02.731Z,-1.80
2023-01-09T10:05:31.209Z,-1.70
2023-01-09T10:08:14.899Z,-1.80
2023-01-09T10:10:51.481Z,-1.70
2023-01-09T10:13:39.079Z,-1.70
2023-01-09T10:16:08.904Z,-1.70
2023-01-09T10:18:58.773Z,-1.80
2023-01-09T10:21:35.507Z,-1.70
2023-01-09T10:24:02.476Z,-1.70
2023-01-09T10:26:32.690Z,-1.70
2023-01-09T10:29:12.050Z,-1.70
2023-01-09T10:31:58.011Z,-1.60
2023-01-09T10:34:25.140Z,-1.60
2023-01-09T10:37:01.167Z,-1.60
2023-01-09T10:39:34.329Z,-1.70
2023-01-09T10:42:07.151Z,-1.60
2023-01-09T10:44:40.487Z,-1.60
2023-01-09T10:47:31.255Z,-1.70
2023-01-09T10:49:59.144Z,-1.60
2023-01-09T10:52:30.176Z,-1.60
2023-01-09T10:55:13.800Z,-1.70
2023-01-09T10:57:53.187Z,-1.60
2023-01-09T11:00:23.360Z,-1.60
2023-01-09T11:02:51.614Z,-1.60
2023-01-09T11:05:27.605Z,-1.60
2023-01-09T11:08:07.095Z,-1.60
2023-01-09T11:10:50.889Z,-1.60
2023-01-09T11:13:25.218Z,-1.60
2023-01-09T11:16:10.708Z,-1.60
2023-01-09T11:18:40.936Z,-1.60
2023-01-09T11:21:19.845Z,-1.60
2023-01-09T11:23:46.897Z,-1.60
2023-01-09T11:26:27.274Z,-1.60
2023-01-09T11:29:14.534Z,-1.60
2023-01-09T11:31:42.660Z,-1.60
2023-01-09T11:34:17.390Z,-1.60
2023-01-09T11:36:44.661Z,-1.60
2023-01-09T11:39:25.607Z,-1.60
2023-01-09T11:42:03.721Z,-1.60
2023-01-09T11:44:37.934Z,-1.60
2023-01-09T11:47:24.371Z,-1.60
2023-01-09T11:49:51.472Z,-1.60
2023-01-09T11:52:22.369Z,-1.60
2023-01-09T11:54:57.752Z,-1.60
2023-01-09T11:57:25.209Z,-1.60
2023-01-09T11:59:52.226Z,-1.60
2023-01-09T12:02:25.235Z,-1.60
2023-01-09T12:04:55.682Z,-1.60
2023-01-09T12:07:35.899Z,-1.60
2023-01-09T12:10:33.995Z,-1.60
2023-01-09T12:13:29.850Z,-1.60
2023-01-09T12:16:18.161Z,-1.60
2023-01-09T12:23:02.698Z,-1.50
2023-01-09T12:25:42.720Z,-1.60
2023-01-09T12:28:31.210Z,-1.60
2023-01-09T12:31:01.538Z,-1.50
2023-01-09T12:33:30.348Z,-1.60
2023-01-09T12:36:34.182Z,-1.50
2023-01-09T12:39:47.695Z,-1.50
2023-01-09T12:42:28.812Z,-1.50
2023-01-09T12:45:24.862Z,-1.60
2023-01-09T12:48:05.713Z,-1.50
2023-01-09T12:50:35.783Z,-1.50
2023-01-09T12:53:06.869Z,-1.50
2023-01-09T12:55:36.137Z,-1.50
2023-01-09T12:58:11.058Z,-1.50
2023-01-09T13:00:41.233Z,-1.50
2023-01-09T13:03:15.568Z,-1.50
2023-01-09T13:05:53.554Z,-1.50
2023-01-09T13:08:44.845Z,-1.50
2023-01-09T13:11:30.270Z,-1.50
2023-01-09T13:14:26.305Z,-1.50
2023-01-09T13:16:55.418Z,-1.50
2023-01-09T13:19:34.689Z,-1.60
2023-01-09T13:22:04.029Z,-1.60
2023-01-09T13:24:37.851Z,-1.60
2023-01-09T13:27:08.013Z,-1.60
2023-01-09T13:29:36.720Z,-1.60
2023-01-09T13:32:26.951Z,-1.60
2023-01-09T13:34:57.399Z,-1.60
2023-01-09T13:37:24.303Z,-1.60
2023-01-09T13:39:55.993Z,-1.60
2023-01-09T13:42:36.122Z,-1.60
2023-01-09T13:45:11.379Z,-1.60
2023-01-09T13:47:38.555Z,-1.70
2023-01-09T13:50:20.952Z,-1.60
2023-01-09T13:52:48.129Z,-1.70
2023-01-09T13:55:15.097Z,-1.70
2023-01-09T13:57:46.995Z,-1.70
2023-01-09T14:00:14.700Z,-1.70
2023-01-09T14:02:42.330Z,-1.70
2023-01-09T14:05:23.218Z,-1.70
2023-01-09T14:08:16.841Z,-1.80
2023-01-09T14:10:43.776Z,-1.80
2023-01-09T14:13:15.286Z,-1.80
2023-01-09T14:15:44.999Z,-1.80
2023-01-09T14:18:25.591Z,-1.90
2023-01-09T14:20:54.991Z,-1.90
2023-01-09T14:23:42.245Z,-1.80
2023-01-09T14:26:17.458Z,-1.90
2023-01-09T14:28:44.395Z,-1.90
2023-01-09T14:31:26.154Z,-1.90
2023-01-09T14:34:23.516Z,-1.90
2023-01-09T14:36:59.225Z,-1.90
2023-01-09T14:39:27.359Z,-1.90
2023-01-09T14:41:57.967Z,-2.00
2023-01-09T14:44:34.196Z,-1.90
2023-01-09T14:47:27.591Z,-1.90
2023-01-09T14:49:59.875Z,-2.00
2023-01-09T14:52:29.387Z,-2.00
2023-01-09T14:54:58.573Z,-2.00
2023-01-09T14:57:29.888Z,-2.10
2023-01-09T15:00:01.105Z,-2.10
2023-01-09T15:02:30.507Z,-2.10
2023-01-09T15:05:16.035Z,-2.10
2023-01-09T15:08:00.250Z,-2.10
2023-01-09T15:10:36.748Z,-2.10
2023-01-09T15:13:06.470Z,-2.10
2023-01-09T15:15:35.118Z,-2.20
2023-01-09T15:18:04.572Z,-2.20
2023-01-09T15:20:32.218Z,-2.10
2023-01-09T15:23:12.169Z,-2.10
2023-01-09T15:25:46.289Z,-2.10
2023-01-09T15:28:32.560Z,-2.10
2023-01-09T15:31:16.764Z,-2.10
2023-01-09T15:33:45.072Z,-2.10
2023-01-09T15:36:17.548Z,-2.10
2023-01-09T15:38:47.469Z,-2.10
2023-01-09T15:41:42.497Z,-2.10
2023-01-09T15:44:14.586Z,-2.10
2023-01-09T15:46:42.416Z,-2.10
2023-01-09T15:49:11.406Z,-2.10
2023-01-09T15:51:38.457Z,-2.10
2023-01-09T15:54:05.643Z,-2.10
2023-01-09T15:56:33.536Z,-2.10
2023-01-09T15:59:01.065Z,-2.10
2023-01-09T16:01:32.053Z,-2.10
2023-01-09T16:04:15.950Z,-2.10
2023-01-09T16:06:57.101Z,-2.10
2023-01-09T16:09:44.070Z,-2.10
2023-01-09T16:12:32.058Z,-2.10
2023-01-09T16:15:05.957Z,-2.10
2023-01-09T16:17:33.921Z,-2.10
2023-01-09T16:20:14.899Z,-2.10
2023-01-09T16:22:55.185Z,-2.10
2023-01-09T16:25:29.878Z,-2.10
2023-01-09T16:28:15.302Z,-2.10
2023-01-09T16:30:55.275Z,-2.10
2023-01-09T16:33:26.332Z,-2.10
2023-01-09T16:35:54.019Z,-2.10
2023-01-09T16:38:22.694Z,-2.10
2023-01-09T16:41:28.636Z,-2.10
2023-01-09T16:43:55.628Z,-2.10
2023-01-09T16:46:29.260Z,-2.10
2023-01-09T16:49:02.749Z,-2.10
2023-01-09T16:51:29.695Z,-2.10
2023-01-09T16:53:56.742Z,-2.10
2023-01-09T16:56:26.082Z,-2.10
2023-01-09T16:58:54.791Z,-2.10
2023-01-09T17:01:22.712Z,-2.10
2023-01-09T17:03:49.849Z,-2.10
2023-01-09T17:06:23.203Z,-2.20
2023-01-09T17:08:51.626Z,-2.20
2023-01-09T17:11:23.125Z,-2.20
2023-01-09T17:13:50.314Z,-2.20
2023-01-09T17:16:17.762Z,-2.30
2023-01-09T17:18:44.852Z,-2.20
2023-01-09T17:21:16.274Z,-2.20
2023-01-09T17:23:43.338Z,-2.20
2023-01-09T17:26:33.209Z,-2.20
2023-01-09T17:29:06.353Z,-2.20
2023-01-09T17:31:53.272Z,-2.20
2023-01-09T17:34:34.407Z,-2.20
2023-01-09T17:37:22.248Z,-2.20
2023-01-09T17:40:03.738Z,-2.20
2023-01-09T17:42:36.981Z,-2.20
2023-01-09T17:45:04.026Z,-2.20
2023-01-09T17:47:31.340Z,-2.30
2023-01-09T17:49:58.376Z,-2.30
2023-01-09T17:52:26.588Z,-2.30
2023-01-09T17:54:53.482Z,-2.30
2023-01-09T17:57:20.475Z,-2.30
2023-01-09T17:59:47.425Z,-2.30
2023-01-09T18:02:18.210Z,-2.30
2023-01-09T18:04:45.453Z,-2.20
2023-01-09T18:07:14.824Z,-2.30
2023-01-09T18:09:42.425Z,-2.30
2023-01-09T18:12:09.440Z,-2.20
2023-01-09T18:14:38.086Z,-2.30
2023-01-09T18:17:06.342Z,-2.30
2023-01-09T18:19:33.570Z,-2.30
2023-01-09T18:22:00.571Z,-2.30
2023-01-09T18:24:27.895Z,-2.30
2023-01-09T18:26:54.803Z,-2.30
2023-01-09T18:29:21.910Z,-2.30
2023-01-09T18:31:49.098Z,-2.30
2023-01-09T18:34:16.035Z,-2.30
2023-01-09T18:36:43.206Z,-2.30
2023-01-09T18:39:10.380Z,-2.30
2023-01-09T18:41:37.292Z,-2.30
2023-01-09T18:44:04.340Z,-2.40
2023-01-09T18:46:32.376Z,-2.40
2023-01-09T18:49:03.423Z,-2.40
2023-01-09T18:51:30.817Z,-2.40
2023-01-09T18:53:58.766Z,-2.30
2023-01-09T18:56:26.283Z,-2.40
2023-01-09T18:58:59.810Z,-2.40
2023-01-09T19:01:27.836Z,-2.40
2023-01-09T19:03:59.445Z,-2.40
2023-01-09T19:06:38.343Z,-2.40
2023-01-09T19:09:12.007Z,-2.40
2023-01-09T19:11:39.104Z,-2.40
2023-01-09T19:14:06.109Z,-2.40
2023-01-09T19:16:33.112Z,-2.40
2023-01-09T19:19:02.249Z,-2.40
2023-01-09T19:21:29.851Z,-2.40
2023-01-09T19:23:58.882Z,-2.40
2023-01-09T19:26:27.573Z,-2.40
2023-01-09T19:28:57.360Z,-2.50
2023-01-09T19:31:25.290Z,-2.40
2023-01-09T19:33:52.657Z,-2.40
2023-01-09T19:36:20.013Z,-2.50
2023-01-09T19:38:47.026Z,-2.50
2023-01-09T19:41:17.913Z,-2.50
2023-01-09T19:43:45.309Z,-2.50
2023-01-09T19:46:13.829Z,-2.50
2023-01-09T19:48:42.869Z,-2.50
2023-01-09T19:51:10.637Z,-2.50
2023-01-09T19:53:37.971Z,-2.50
2023-01-09T19:56:07.977Z,-2.50
2023-01-09T19:58:34.958Z,-2.60
2023-01-09T20:01:06.483Z,-2.60
2023-01-09T20:03:33.532Z,-2.60
2023-01-09T20:06:07.745Z,-2.60
2023-01-09T20:08:55.352Z,-2.60
2023-01-09T20:11:29.787Z,-2.60
2023-01-09T20:13:56.839Z,-2.60
2023-01-09T20:16:28.710Z,-2.60
2023-01-09T20:18:59.288Z,-2.70
2023-01-09T20:21:27.074Z,-2.60
2023-01-09T20:23:55.464Z,-2.60
2023-01-09T20:26:23.554Z,-2.70
2023-01-09T20:28:50.597Z,-2.70
2023-01-09T20:31:19.274Z,-2.70
2023-01-09T20:33:46.741Z,-2.70
2023-01-09T20:36:14.054Z,-2.70
2023-01-09T20:38:41.738Z,-2.80
2023-01-09T20:41:22.620Z,-2.80
2023-01-09T20:43:50.464Z,-2.80
2023-01-09T20:46:17.465Z,-2.80
2023-01-09T20:48:44.606Z,-2.80
2023-01-09T20:51:13.215Z,-2.80
2023-01-09T20:53:46.875Z,-2.80
2023-01-09T20:56:14.274Z,-2.80
2023-01-09T20:58:42.384Z,-2.70
2023-01-09T21:01:11.360Z,-2.70
2023-01-09T21:03:38.720Z,-2.80
2023-01-09T21:06:07.182Z,-2.80
2023-01-09T21:08:34.251Z,-2.80
2023-01-09T21:11:02.463Z,-2.80
2023-01-09T21:13:29.813Z,-2.80
2023-01-09T21:16:01.188Z,-2.70
2023-01-09T21:18:28.356Z,-2.80
2023-01-09T21:20:57.556Z,-2.80
2023-01-09T21:23:24.561Z,-2.80
2023-01-09T21:25:51.492Z,-2.80
2023-01-09T21:28:19.536Z,-2.80
2023-01-09T21:30:49.728Z,-2.80
2023-01-09T21:33:23.914Z,-2.70
2023-01-09T21:36:04.719Z,-2.70
2023-01-09T21:38:34.770Z,-2.80
2023-01-09T21:41:22.709Z,-2.80
2023-01-09T21:44:19.513Z,-2.90
2023-01-09T21:46:56.627Z,-2.90
2023-01-09T21:49:31.168Z,-2.90
2023-01-09T21:51:59.223Z,-3.00
2023-01-09T21:54:26.536Z,-3.00
2023-01-09T21:56:55.526Z,-3.00
2023-01-09T21:59:22.980Z,-3.00
2023-01-09T22:01:50.523Z,-3.00
2023-01-09T22:04:18.631Z,-3.00
2023-01-09T22:06:45.706Z,-3.00
2023-01-09T22:09:14.973Z,-3.00
2023-01-09T22:11:43.394Z,-3.00
2023-01-09T22:14:14.964Z,-3.00
2023-01-09T22:16:43.577Z,-3.00
2023-01-09T22:19:14.184Z,-3.10
2023-01-09T22:21:41.292Z,-3.10
2023-01-09T22:24:16.356Z,-3.10
2023-01-09T22:26:43.768Z,-3.10
2023-01-09T22:29:10.798Z,-3.00
2023-01-09T22:31:40.174Z,-3.00
2023-01-09T22:34:07.648Z,-3.00
2023-01-09T22:36:34.983Z,-3.00
2023-01-09T22:39:02.426Z,-3.00
2023-01-09T22:41:32.071Z,-3.00
2023-01-09T22:43:59.482Z,-3.10
2023-01-09T22:47:10.304Z,-3.10
2023-01-09T22:49:52.213Z,-3.10
2023-01-09T22:52:36.221Z,-3.10
2023-01-09T22:55:37.303Z,-3.10
2023-01-09T22:58:06.543Z,-3.00
2023-01-09T23:00:36.781Z,-3.10
2023-01-09T23:03:03.889Z,-3.10
2023-01-09T23:05:37.671Z,-3.00
2023-01-09T23:08:25.440Z,-3.10
2023-01-09T23:11:02.347Z,-3.10
2023-01-09T23:13:29.282Z,-3.10
2023-01-09T23:15:56.477Z,-3.10
2023-01-09T23:18:23.810Z,-3.10
2023-01-09T23:21:09.751Z,-3.10
2023-01-09T23:23:36.784Z,-3.10
2023-01-09T23:26:05.002Z,-3.10
2023-01-09T23:28:32.019Z,-3.10
2023-01-09T23:31:01.791Z,-3.10
2023-01-09T23:33:28.884Z,-3.10
2023-01-09T23:35:56.267Z,-3.10
2023-01-09T23:38:25.297Z,-3.10
2023-01-09T23:40:56.099Z,-3.10
2023-01-09T23:43:24.559Z,-3.10
2023-01-09T23:45:53.059Z,-3.20
2023-01-09T23:48:20.423Z,-3.20
2023-01-09T23:50:48.970Z,-3.20
2023-01-09T23:53:16.736Z,-3.20
2023-01-09T23:55:56.498Z,-3.20
2023-01-09T23:58:43.590Z,-3.20
